Time;durP1;ratioP1;P1;durP2;ratioP2;P2;SDS_P1;SDS_P2;PMS_P1;PMS_P2;Temp;Humidity;BMP_temperature;BMP_pressure;BME280_temperature;BME280_humidity;BME280_pressure;Samples;Min_cycle;Max_cycle;Signal;HPM_P1;HPM_P2
2022/09/07 00:00:27;;;;;;;0.35;0.35;;;;;;;;;;5053077;28;20234;-87
2022/09/07 00:02:54;;;;;;;0.30;0.30;;;;;;;;;;5053859;28;20209;-86
2022/09/07 00:05:22;;;;;;;0.30;0.30;;;;;;;;;;5052911;28;20241;-86
2022/09/07 00:07:49;;;;;;;0.28;0.28;;;;;;;;;;5058823;28;20202;-85
2022/09/07 00:10:16;;;;;;;0.30;0.30;;;;;;;;;;5060937;28;20245;-86
2022/09/07 00:12:43;;;;;;;0.30;0.30;;;;;;;;;;5054697;28;20206;-86
2022/09/07 00:15:12;;;;;;;0.30;0.30;;;;;;;;;;5053710;28;20233;-86
2022/09/07 00:17:41;;;;;;;0.30;0.30;;;;;;;;;;5053460;28;20201;-86
2022/09/07 00:20:08;;;;;;;0.40;0.40;;;;;;;;;;5052486;28;20332;-86
2022/09/07 00:22:36;;;;;;;0.40;0.40;;;;;;;;;;5053417;28;20209;-86
2022/09/07 00:25:03;;;;;;;0.22;0.22;;;;;;;;;;5052966;28;20234;-86
2022/09/07 00:27:30;;;;;;;0.55;0.55;;;;;;;;;;5053358;28;20217;-86
2022/09/07 00:29:57;;;;;;;0.40;0.40;;;;;;;;;;5052523;28;20238;-86
2022/09/07 00:32:25;;;;;;;0.45;0.45;;;;;;;;;;5052962;28;20214;-85
2022/09/07 00:34:52;;;;;;;0.35;0.35;;;;;;;;;;5052569;28;20241;-86
2022/09/07 00:37:19;;;;;;;0.52;0.52;;;;;;;;;;5052886;28;20206;-86
2022/09/07 00:39:47;;;;;;;0.40;0.40;;;;;;;;;;5052163;28;20724;-86
2022/09/07 00:42:14;;;;;;;0.45;0.45;;;;;;;;;;5053000;28;20289;-86
2022/09/07 00:45:08;;;;;;;0.40;0.40;;;;;;;;;;5052098;28;20609;-86
2022/09/07 00:47:38;;;;;;;0.30;0.30;;;;;;;;;;5052840;28;20563;-86
2022/09/07 00:50:08;;;;;;;0.38;0.38;;;;;;;;;;5052083;28;20237;-86
2022/09/07 00:52:35;;;;;;;0.30;0.30;;;;;;;;;;5052812;28;20301;-86
2022/09/07 00:55:04;;;;;;;0.68;0.68;;;;;;;;;;5052073;28;20245;-86
2022/09/07 00:57:31;;;;;;;0.40;0.40;;;;;;;;;;5052863;28;20206;-86
2022/09/07 00:59:59;;;;;;;0.45;0.45;;;;;;;;;;5051251;28;20234;-86
2022/09/07 01:02:26;;;;;;;1.52;0.60;;;;;;;;;;5052922;28;20217;-86
2022/09/07 01:04:57;;;;;;;0.52;0.52;;;;;;;;;;5051978;28;20254;-85
2022/09/07 01:07:24;;;;;;;0.38;0.38;;;;;;;;;;5060915;28;20223;-85
2022/09/07 01:09:52;;;;;;;0.30;0.30;;;;;;;;;;5064578;28;20263;-85
2022/09/07 01:12:20;;;;;;;0.30;0.30;;;;;;;;;;5055156;28;20202;-86
2022/09/07 01:14:49;;;;;;;0.40;0.40;;;;;;;;;;5053145;28;20710;-86
2022/09/07 01:17:18;;;;;;;0.30;0.30;;;;;;;;;;5053632;28;20202;-86
2022/09/07 01:20:02;;;;;;;0.38;0.38;;;;;;;;;;5052088;28;20253;-86
2022/09/07 01:22:39;;;;;;;0.50;0.50;;;;;;;;;;5052105;28;20285;-87
2022/09/07 01:25:10;;;;;;;0.20;0.20;;;;;;;;;;5051889;28;20264;-86
2022/09/07 01:27:50;;;;;;;0.63;0.63;;;;;;;;;;5052988;28;20202;-87
2022/09/07 01:30:18;;;;;;;0.30;0.30;;;;;;;;;;5064666;28;20240;-87
2022/09/07 01:32:53;;;;;;;0.30;0.30;;;;;;;;;;5072629;28;20201;-86
2022/09/07 01:35:22;;;;;;;0.30;0.30;;;;;;;;;;5072416;28;20237;-86
2022/09/07 01:37:52;;;;;;;0.35;0.35;;;;;;;;;;5072673;28;20248;-87
2022/09/07 01:40:24;;;;;;;0.43;0.43;;;;;;;;;;5072625;28;20237;-86
2022/09/07 01:42:55;;;;;;;0.30;0.30;;;;;;;;;;5072779;28;20200;-87
2022/09/07 01:45:25;;;;;;;0.20;0.20;;;;;;;;;;5079512;28;20241;-86
2022/09/07 01:47:54;;;;;;;0.30;0.30;;;;;;;;;;5083475;28;20202;-86
2022/09/07 01:50:23;;;;;;;0.32;0.32;;;;;;;;;;5078000;28;20240;-86
2022/09/07 01:52:53;;;;;;;0.40;0.40;;;;;;;;;;5081322;28;20201;-86
2022/09/07 01:55:24;;;;;;;0.45;0.45;;;;;;;;;;5079176;28;20237;-86
2022/09/07 01:57:54;;;;;;;0.45;0.45;;;;;;;;;;5076034;28;20185;-86
2022/09/07 02:00:21;;;;;;;0.57;0.57;;;;;;;;;;5075418;28;20603;-86
2022/09/07 02:02:52;;;;;;;0.40;0.40;;;;;;;;;;5076011;28;20210;-86
2022/09/07 02:05:21;;;;;;;0.65;0.65;;;;;;;;;;5075565;28;20240;-86
2022/09/07 02:07:50;;;;;;;0.55;0.55;;;;;;;;;;5075913;28;20209;-86
2022/09/07 02:10:22;;;;;;;0.45;0.45;;;;;;;;;;5075346;28;20240;-86
2022/09/07 02:12:52;;;;;;;0.30;0.30;;;;;;;;;;5075964;28;20193;-86
2022/09/07 02:15:23;;;;;;;0.40;0.40;;;;;;;;;;5075363;28;20298;-86
2022/09/07 02:17:51;;;;;;;0.40;0.40;;;;;;;;;;5095636;23;20734;-85
2022/09/07 02:20:19;;;;;;;0.43;0.43;;;;;;;;;;5061881;28;20229;-85
2022/09/07 02:22:49;;;;;;;0.30;0.30;;;;;;;;;;5055390;28;20246;-87
2022/09/07 02:25:21;;;;;;;0.77;0.77;;;;;;;;;;5055024;28;20644;-85
2022/09/07 02:27:51;;;;;;;0.43;0.43;;;;;;;;;;5055404;28;20627;-86
2022/09/07 02:30:18;;;;;;;0.32;0.32;;;;;;;;;;5054910;28;20264;-86
2022/09/07 02:32:47;;;;;;;0.35;0.35;;;;;;;;;;5055147;28;20260;-86
2022/09/07 02:35:15;;;;;;;0.33;0.33;;;;;;;;;;5054562;28;20249;-85
2022/09/07 02:37:43;;;;;;;0.30;0.30;;;;;;;;;;5054763;28;20246;-87
2022/09/07 02:40:10;;;;;;;0.53;0.53;;;;;;;;;;5054303;28;20689;-87
2022/09/07 02:42:38;;;;;;;0.90;0.47;;;;;;;;;;5054840;28;20206;-87
2022/09/07 02:45:08;;;;;;;0.30;0.30;;;;;;;;;;5054300;28;20706;-88
2022/09/07 02:47:42;;;;;;;0.30;0.30;;;;;;;;;;5054700;28;20248;-88
2022/09/07 02:50:20;;;;;;;0.43;0.43;;;;;;;;;;5054098;28;20242;-88
2022/09/07 02:52:53;;;;;;;0.50;0.50;;;;;;;;;;5054752;28;20193;-88
2022/09/07 02:55:25;;;;;;;1.73;0.60;;;;;;;;;;5054135;28;20261;-87
2022/09/07 02:57:57;;;;;;;0.32;0.32;;;;;;;;;;5053926;28;20252;-88
2022/09/07 03:00:25;;;;;;;0.40;0.40;;;;;;;;;;5062484;28;20234;-87
2022/09/07 03:02:58;;;;;;;0.30;0.30;;;;;;;;;;5071081;28;20210;-88
2022/09/07 03:05:29;;;;;;;0.30;0.30;;;;;;;;;;5072152;28;20234;-88
2022/09/07 03:08:00;;;;;;;0.30;0.30;;;;;;;;;;5059160;28;20304;-88
2022/09/07 03:10:27;;;;;;;0.75;0.50;;;;;;;;;;5053925;28;20671;-88
2022/09/07 03:12:55;;;;;;;1.98;1.88;;;;;;;;;;5054632;28;20213;-88
2022/09/07 03:15:23;;;;;;;4.38;2.08;;;;;;;;;;5054512;28;20241;-87
2022/09/07 03:17:50;;;;;;;3.65;2.08;;;;;;;;;;5056275;28;20233;-88
2022/09/07 03:20:18;;;;;;;3.03;2.63;;;;;;;;;;5054653;28;20335;-87
2022/09/07 03:22:47;;;;;;;2.60;2.40;;;;;;;;;;5058562;28;20205;-87
2022/09/07 03:25:14;;;;;;;2.15;1.95;;;;;;;;;;5056778;28;20234;-89
2022/09/07 03:27:41;;;;;;;1.92;1.70;;;;;;;;;;5051570;28;20225;-89
2022/09/07 03:30:10;;;;;;;1.80;1.70;;;;;;;;;;5054910;28;20917;-89
2022/09/07 03:32:39;;;;;;;1.80;1.70;;;;;;;;;;5054567;28;20194;-88
2022/09/07 03:35:07;;;;;;;1.80;1.70;;;;;;;;;;5053935;28;20234;-89
2022/09/07 03:37:36;;;;;;;1.10;1.10;;;;;;;;;;5053897;28;20582;-89
2022/09/07 03:40:05;;;;;;;1.00;1.00;;;;;;;;;;5054029;28;20218;-88
2022/09/07 03:42:32;;;;;;;2.50;1.70;;;;;;;;;;5054114;28;20654;-88
2022/09/07 03:44:59;;;;;;;1.80;1.70;;;;;;;;;;5053639;28;20730;-88
2022/09/07 03:50:29;;;;;;;1.88;1.73;;;;;;;;;;5053517;28;20279;-87
2022/09/07 03:52:56;;;;;;;2.35;1.88;;;;;;;;;;5053817;28;20658;-88
2022/09/07 03:55:24;;;;;;;1.52;1.42;;;;;;;;;;5053520;28;20249;-87
2022/09/07 03:57:51;;;;;;;2.63;1.73;;;;;;;;;;5053575;28;20228;-87
2022/09/07 04:00:19;;;;;;;1.60;1.50;;;;;;;;;;5053394;28;20245;-87
2022/09/07 04:02:46;;;;;;;1.53;1.43;;;;;;;;;;5053389;28;20202;-88
2022/09/07 04:05:13;;;;;;;1.98;1.85;;;;;;;;;;5053499;28;20242;-89
2022/09/07 04:07:40;;;;;;;1.47;1.37;;;;;;;;;;5053392;28;20226;-86
2022/09/07 04:10:08;;;;;;;1.70;1.50;;;;;;;;;;5053216;28;20238;-88
2022/09/07 04:12:36;;;;;;;1.50;1.40;;;;;;;;;;5053265;28;20197;-88
2022/09/07 04:15:03;;;;;;;1.70;1.60;;;;;;;;;;5057238;28;20241;-87
2022/09/07 04:17:30;;;;;;;1.53;1.43;;;;;;;;;;5056262;28;20736;-87
2022/09/07 04:19:57;;;;;;;1.43;1.30;;;;;;;;;;5054911;28;20244;-87
2022/09/07 04:22:24;;;;;;;1.60;1.50;;;;;;;;;;5055576;28;20217;-88
2022/09/07 04:24:52;;;;;;;1.73;1.63;;;;;;;;;;5054298;28;20234;-86
2022/09/07 04:27:19;;;;;;;1.40;1.30;;;;;;;;;;5056303;28;20230;-87
2022/09/07 04:29:48;;;;;;;1.60;1.50;;;;;;;;;;5055065;28;20234;-87
2022/09/07 04:32:15;;;;;;;1.80;1.70;;;;;;;;;;5055700;28;20226;-86
2022/09/07 04:34:42;;;;;;;1.67;1.60;;;;;;;;;;5053644;28;20312;-86
2022/09/07 04:37:09;;;;;;;1.30;1.20;;;;;;;;;;5053887;28;20225;-87
2022/09/07 04:39:36;;;;;;;1.83;1.70;;;;;;;;;;5053503;28;20237;-86
2022/09/07 04:42:03;;;;;;;1.70;1.60;;;;;;;;;;5053201;28;20213;-88
2022/09/07 04:44:30;;;;;;;1.53;1.43;;;;;;;;;;5053538;28;20242;-87
2022/09/07 04:46:59;;;;;;;1.40;1.30;;;;;;;;;;5054195;28;20229;-87
2022/09/07 04:49:26;;;;;;;1.63;1.53;;;;;;;;;;5053779;28;20253;-86
2022/09/07 04:51:53;;;;;;;1.30;1.20;;;;;;;;;;5052797;28;20222;-87
2022/09/07 04:54:20;;;;;;;1.20;1.20;;;;;;;;;;5052224;28;20233;-87
2022/09/07 04:56:50;;;;;;;1.50;1.40;;;;;;;;;;5052502;28;20213;-87
2022/09/07 04:59:17;;;;;;;1.57;1.47;;;;;;;;;;5051978;28;20229;-87
2022/09/07 05:01:44;;;;;;;1.37;1.27;;;;;;;;;;5052398;28;20214;-87
2022/09/07 05:04:12;;;;;;;1.80;1.70;;;;;;;;;;5052025;28;20240;-87
2022/09/07 05:06:39;;;;;;;1.20;1.20;;;;;;;;;;5052913;28;20217;-86
2022/09/07 05:09:07;;;;;;;1.70;1.60;;;;;;;;;;5052275;28;20312;-89
2022/09/07 05:11:34;;;;;;;1.70;1.60;;;;;;;;;;5053056;28;20230;-88
2022/09/07 05:14:01;;;;;;;1.70;1.60;;;;;;;;;;5053296;28;20206;-88
2022/09/07 05:16:29;;;;;;;1.77;1.67;;;;;;;;;;5053518;28;20210;-88
2022/09/07 05:18:57;;;;;;;2.30;2.10;;;;;;;;;;5052729;28;20597;-89
2022/09/07 05:21:26;;;;;;;1.57;1.47;;;;;;;;;;5054327;28;20209;-88
2022/09/07 05:23:54;;;;;;;1.80;1.70;;;;;;;;;;5053397;28;20213;-88
2022/09/07 05:26:23;;;;;;;1.40;1.30;;;;;;;;;;5056518;28;20208;-88
2022/09/07 05:28:51;;;;;;;1.80;1.70;;;;;;;;;;5058520;28;20753;-89
2022/09/07 05:31:19;;;;;;;2.37;2.17;;;;;;;;;;5059845;28;20222;-89
2022/09/07 05:33:47;;;;;;;2.13;1.93;;;;;;;;;;5057704;28;20210;-89
2022/09/07 05:36:14;;;;;;;1.93;1.83;;;;;;;;;;5058235;28;20220;-88
2022/09/07 05:38:44;;;;;;;2.77;2.00;;;;;;;;;;5057436;28;20232;-89
2022/09/07 05:41:12;;;;;;;1.43;1.33;;;;;;;;;;5057133;28;20225;-87
2022/09/07 05:43:39;;;;;;;1.87;1.67;;;;;;;;;;5057204;28;20202;-86
2022/09/07 05:46:07;;;;;;;1.80;1.70;;;;;;;;;;5056360;28;20237;-86
2022/09/07 05:48:34;;;;;;;1.70;1.60;;;;;;;;;;5056646;28;20226;-86
2022/09/07 05:51:01;;;;;;;1.90;1.80;;;;;;;;;;5056429;28;20238;-87
2022/09/07 05:53:28;;;;;;;1.60;1.50;;;;;;;;;;5057182;28;20217;-87
2022/09/07 05:55:59;;;;;;;3.47;1.50;;;;;;;;;;5056410;28;20698;-87
2022/09/07 05:58:27;;;;;;;1.83;1.63;;;;;;;;;;5056460;28;20717;-86
2022/09/07 06:00:54;;;;;;;2.00;1.90;;;;;;;;;;5055364;28;20260;-87
2022/09/07 06:03:21;;;;;;;1.40;1.40;;;;;;;;;;5057241;28;20544;-86
2022/09/07 06:05:48;;;;;;;1.67;1.57;;;;;;;;;;5057036;28;20230;-86
2022/09/07 06:08:15;;;;;;;1.40;1.30;;;;;;;;;;5063512;28;20233;-90
2022/09/07 06:10:43;;;;;;;2.03;1.87;;;;;;;;;;5065962;28;20230;-88
2022/09/07 06:13:11;;;;;;;1.70;1.60;;;;;;;;;;5059500;28;20693;-86
2022/09/07 06:15:38;;;;;;;2.23;2.07;;;;;;;;;;5058062;28;20238;-88
2022/09/07 06:18:06;;;;;;;2.63;2.13;;;;;;;;;;5058056;28;20789;-88
2022/09/07 06:20:33;;;;;;;1.40;1.30;;;;;;;;;;5053588;28;20649;-88
2022/09/07 06:23:07;;;;;;;2.10;1.90;;;;;;;;;;5048717;28;20217;-88
2022/09/07 06:25:34;;;;;;;1.67;1.57;;;;;;;;;;5059408;28;20323;-89
2022/09/07 06:28:01;;;;;;;2.40;1.80;;;;;;;;;;5068399;28;20218;-88
2022/09/07 06:30:30;;;;;;;2.73;1.93;;;;;;;;;;5058056;28;20240;-88
2022/09/07 06:32:57;;;;;;;2.23;1.80;;;;;;;;;;5073343;28;20218;-88
2022/09/07 06:35:31;;;;;;;2.33;2.13;;;;;;;;;;5061054;28;20241;-88
2022/09/07 06:38:00;;;;;;;2.47;2.30;;;;;;;;;;5060495;28;20229;-88
2022/09/07 06:40:27;;;;;;;2.40;2.20;;;;;;;;;;5058825;28;20233;-88
2022/09/07 06:42:54;;;;;;;2.40;2.00;;;;;;;;;;5059999;28;20213;-87
2022/09/07 06:45:21;;;;;;;2.27;1.93;;;;;;;;;;5075681;28;20218;-90
2022/09/07 06:47:49;;;;;;;2.20;2.00;;;;;;;;;;5079481;28;20206;-90
2022/09/07 06:50:16;;;;;;;3.57;2.27;;;;;;;;;;5058712;28;20317;-88
2022/09/07 06:52:43;;;;;;;1.67;1.57;;;;;;;;;;5057871;28;20685;-87
2022/09/07 06:55:10;;;;;;;2.00;1.88;;;;;;;;;;5056599;28;20252;-87
2022/09/07 06:57:38;;;;;;;2.10;2.00;;;;;;;;;;5056417;28;20313;-87
2022/09/07 07:00:05;;;;;;;2.17;1.97;;;;;;;;;;5056085;28;20245;-87
2022/09/07 07:02:32;;;;;;;1.90;1.80;;;;;;;;;;5056425;28;20209;-87
2022/09/07 07:05:01;;;;;;;1.70;1.60;;;;;;;;;;5055451;28;20868;-87
2022/09/07 07:07:28;;;;;;;1.00;1.00;;;;;;;;;;5055874;28;20709;-86
2022/09/07 07:09:55;;;;;;;1.30;1.20;;;;;;;;;;5054740;28;20716;-86
2022/09/07 07:12:22;;;;;;;0.70;0.70;;;;;;;;;;5056719;28;20234;-86
2022/09/07 07:15:05;;;;;;;0.82;0.82;;;;;;;;;;5054904;28;20237;-87
2022/09/07 07:17:32;;;;;;;0.63;0.63;;;;;;;;;;5054842;28;20980;-87
2022/09/07 07:20:03;;;;;;;0.60;0.60;;;;;;;;;;5054569;28;20238;-87
2022/09/07 07:22:30;;;;;;;0.70;0.70;;;;;;;;;;5054990;28;20216;-87
2022/09/07 07:24:57;;;;;;;0.63;0.63;;;;;;;;;;5067544;28;20240;-86
2022/09/07 07:27:24;;;;;;;0.90;0.70;;;;;;;;;;5056874;28;20218;-86
2022/09/07 07:29:52;;;;;;;1.00;1.00;;;;;;;;;;5054663;28;20222;-86
2022/09/07 07:32:19;;;;;;;0.90;0.90;;;;;;;;;;5055913;28;20305;-84
2022/09/07 07:34:47;;;;;;;0.80;0.80;;;;;;;;;;5055426;28;20706;-83
2022/09/07 07:37:16;;;;;;;0.95;0.95;;;;;;;;;;5056502;28;20226;-84
2022/09/07 07:39:43;;;;;;;1.40;1.10;;;;;;;;;;5055320;28;20332;-83
2022/09/07 07:42:11;;;;;;;1.85;1.15;;;;;;;;;;5055910;28;20201;-85
2022/09/07 07:44:38;;;;;;;0.82;0.82;;;;;;;;;;5054546;28;20229;-84
2022/09/07 07:47:05;;;;;;;0.85;0.80;;;;;;;;;;5053566;28;20601;-83
2022/09/07 07:49:32;;;;;;;0.63;0.52;;;;;;;;;;5054091;28;20238;-83
2022/09/07 07:51:59;;;;;;;0.55;0.55;;;;;;;;;;5054290;28;20635;-83
2022/09/07 07:54:28;;;;;;;0.70;0.70;;;;;;;;;;5053996;28;20245;-84
2022/09/07 07:56:55;;;;;;;1.40;0.77;;;;;;;;;;5054319;28;20226;-86
2022/09/07 07:59:22;;;;;;;0.65;0.65;;;;;;;;;;5055660;28;20232;-86
2022/09/07 08:01:49;;;;;;;0.60;0.60;;;;;;;;;;5054156;28;20206;-86
2022/09/07 08:04:16;;;;;;;0.52;0.52;;;;;;;;;;5053771;28;20234;-87
2022/09/07 08:06:43;;;;;;;0.75;0.50;;;;;;;;;;5055765;28;20569;-86
2022/09/07 08:09:11;;;;;;;0.52;0.52;;;;;;;;;;5057527;28;20720;-86
2022/09/07 08:11:41;;;;;;;0.30;0.30;;;;;;;;;;5054456;28;20310;-86
2022/09/07 08:14:08;;;;;;;0.65;0.65;;;;;;;;;;5053893;28;20234;-86
2022/09/07 08:16:36;;;;;;;0.45;0.45;;;;;;;;;;5054291;28;20202;-87
2022/09/07 08:19:04;;;;;;;0.40;0.40;;;;;;;;;;5016010;23;1847350;-85
2022/09/07 08:21:32;;;;;;;0.20;0.20;;;;;;;;;;5045365;28;20305;-86
2022/09/07 08:23:59;;;;;;;0.10;0.10;;;;;;;;;;5042625;28;20217;-86
2022/09/07 08:26:26;;;;;;;0.28;0.28;;;;;;;;;;5044048;28;20235;-86
2022/09/07 08:28:55;;;;;;;2.65;0.52;;;;;;;;;;5044494;28;20241;-87
2022/09/07 08:31:22;;;;;;;0.55;0.55;;;;;;;;;;5044268;28;20215;-86
2022/09/07 08:33:49;;;;;;;0.40;0.40;;;;;;;;;;5046208;28;20206;-87
2022/09/07 08:36:17;;;;;;;0.30;0.30;;;;;;;;;;5044852;28;20233;-88
2022/09/07 08:38:44;;;;;;;0.40;0.40;;;;;;;;;;5045307;28;20222;-86
2022/09/07 08:41:26;;;;;;;0.40;0.40;;;;;;;;;;5043966;28;20195;-87
2022/09/07 08:43:59;;;;;;;0.40;0.40;;;;;;;;;;5043486;28;20211;-88
2022/09/07 08:46:29;;;;;;;0.25;0.25;;;;;;;;;;5041512;28;20219;-88
2022/09/07 08:48:57;;;;;;;0.20;0.20;;;;;;;;;;5040739;28;20237;-87
2022/09/07 08:51:32;;;;;;;0.20;0.20;;;;;;;;;;5040537;28;20213;-87
2022/09/07 08:53:59;;;;;;;0.70;0.70;;;;;;;;;;5041455;28;20194;-88
2022/09/07 08:56:29;;;;;;;0.55;0.55;;;;;;;;;;5042830;28;20226;-86
2022/09/07 08:58:59;;;;;;;0.32;0.32;;;;;;;;;;5041050;28;20261;-87
2022/09/07 09:01:31;;;;;;;0.30;0.30;;;;;;;;;;5042773;28;20221;-88
2022/09/07 09:03:58;;;;;;;0.30;0.30;;;;;;;;;;5043470;28;20210;-88
2022/09/07 09:06:29;;;;;;;0.70;0.70;;;;;;;;;;5039949;28;20206;-88
2022/09/07 09:09:05;;;;;;;1.25;0.60;;;;;;;;;;5039749;28;20225;-87
2022/09/07 09:11:37;;;;;;;0.40;0.40;;;;;;;;;;5037321;28;20560;-87
2022/09/07 09:14:09;;;;;;;0.75;0.50;;;;;;;;;;5038289;28;20246;-87
2022/09/07 09:16:41;;;;;;;0.43;0.43;;;;;;;;;;5037569;28;20198;-88
2022/09/07 09:19:19;;;;;;;0.40;0.30;;;;;;;;;;5038665;28;20234;-87
2022/09/07 09:21:46;;;;;;;1.02;0.40;;;;;;;;;;5039380;28;20182;-87
2022/09/07 09:24:16;;;;;;;0.60;0.60;;;;;;;;;;5037694;28;20234;-87
2022/09/07 09:26:44;;;;;;;0.40;0.40;;;;;;;;;;5036168;28;20198;-87
2022/09/07 09:29:18;;;;;;;0.22;0.22;;;;;;;;;;5035463;28;20238;-87
2022/09/07 09:31:45;;;;;;;0.85;0.50;;;;;;;;;;5036673;28;20234;-87
2022/09/07 09:34:13;;;;;;;0.30;0.30;;;;;;;;;;5034364;28;20230;-88
2022/09/07 09:36:44;;;;;;;0.38;0.38;;;;;;;;;;5034921;28;20221;-87
2022/09/07 09:39:28;;;;;;;0.30;0.30;;;;;;;;;;5036268;28;20238;-88
2022/09/07 09:41:56;;;;;;;0.80;0.40;;;;;;;;;;5032585;28;20209;-88
2022/09/07 09:44:26;;;;;;;0.43;0.43;;;;;;;;;;5033745;28;20258;-88
2022/09/07 09:46:55;;;;;;;0.13;0.13;;;;;;;;;;5033298;28;20282;-88
2022/09/07 09:49:25;;;;;;;0.22;0.22;;;;;;;;;;5031295;28;20238;-88
2022/09/07 09:51:53;;;;;;;0.57;0.40;;;;;;;;;;5033277;28;20227;-87
2022/09/07 09:54:24;;;;;;;0.20;0.20;;;;;;;;;;5033046;28;20236;-88
2022/09/07 09:56:51;;;;;;;0.20;0.20;;;;;;;;;;5034399;28;20312;-87
2022/09/07 09:59:23;;;;;;;1.00;0.63;;;;;;;;;;5028358;28;20238;-88
2022/09/07 10:01:51;;;;;;;0.15;0.15;;;;;;;;;;5057292;28;20202;-89
2022/09/07 10:04:20;;;;;;;0.38;0.28;;;;;;;;;;5051943;28;20226;-88
2022/09/07 10:06:55;;;;;;;0.20;0.20;;;;;;;;;;5048560;28;20286;-88
2022/09/07 10:09:23;;;;;;;0.10;0.10;;;;;;;;;;5044232;28;20242;-89
2022/09/07 10:11:55;;;;;;;0.20;0.20;;;;;;;;;;5048314;28;20240;-89
2022/09/07 10:14:26;;;;;;;0.08;0.08;;;;;;;;;;5045650;28;20243;-88
2022/09/07 10:16:55;;;;;;;0.20;0.20;;;;;;;;;;5051741;28;20262;-87
2022/09/07 10:19:24;;;;;;;0.22;0.22;;;;;;;;;;5051954;28;20297;-87
2022/09/07 10:21:56;;;;;;;0.47;0.47;;;;;;;;;;5049427;28;20222;-87
2022/09/07 10:24:25;;;;;;;0.30;0.30;;;;;;;;;;5054373;28;20230;-88
2022/09/07 10:26:52;;;;;;;0.10;0.10;;;;;;;;;;5055519;28;20793;-87
2022/09/07 10:29:25;;;;;;;0.17;0.17;;;;;;;;;;5049874;28;20289;-87
2022/09/07 10:32:03;;;;;;;0.30;0.30;;;;;;;;;;5046055;28;20240;-87
2022/09/07 10:34:34;;;;;;;0.30;0.30;;;;;;;;;;5045541;28;20253;-86
2022/09/07 10:37:03;;;;;;;0.20;0.20;;;;;;;;;;5046651;28;20206;-88
2022/09/07 10:39:35;;;;;;;0.25;0.25;;;;;;;;;;5045381;28;20250;-86
2022/09/07 10:42:06;;;;;;;0.32;0.32;;;;;;;;;;5050324;28;20737;-86
2022/09/07 10:44:41;;;;;;;0.32;0.32;;;;;;;;;;5045563;28;20238;-87
2022/09/07 10:47:14;;;;;;;0.30;0.30;;;;;;;;;;5042366;28;20206;-86
2022/09/07 10:49:42;;;;;;;0.30;0.30;;;;;;;;;;5040364;28;20260;-87
2022/09/07 10:52:14;;;;;;;0.52;0.52;;;;;;;;;;5040276;28;20211;-88
2022/09/07 10:54:51;;;;;;;0.20;0.20;;;;;;;;;;5046725;28;20234;-87
2022/09/07 10:57:30;;;;;;;0.50;0.50;;;;;;;;;;5046221;28;20230;-87
2022/09/07 11:00:02;;;;;;;0.20;0.20;;;;;;;;;;5038496;28;20241;-88
2022/09/07 11:02:40;;;;;;;0.30;0.30;;;;;;;;;;5043560;28;20195;-89
2022/09/07 11:05:16;;;;;;;0.30;0.30;;;;;;;;;;5043443;28;20226;-88
2022/09/07 11:07:51;;;;;;;0.17;0.17;;;;;;;;;;5042769;28;20201;-87
2022/09/07 11:10:25;;;;;;;0.20;0.20;;;;;;;;;;5073403;28;20261;-88
2022/09/07 11:12:52;;;;;;;0.40;0.40;;;;;;;;;;5072445;28;20218;-90
2022/09/07 11:15:23;;;;;;;0.25;0.25;;;;;;;;;;5090194;28;20293;-92
2022/09/07 11:17:55;;;;;;;0.55;0.55;;;;;;;;;;5091091;28;20324;-89
2022/09/07 11:20:24;;;;;;;0.10;0.10;;;;;;;;;;5064483;28;20237;-89
2022/09/07 11:22:55;;;;;;;0.20;0.20;;;;;;;;;;5062917;28;20206;-88
2022/09/07 11:25:25;;;;;;;0.50;0.50;;;;;;;;;;5071514;28;20232;-90
2022/09/07 11:27:54;;;;;;;0.30;0.30;;;;;;;;;;5061715;28;20617;-89
2022/09/07 11:30:22;;;;;;;0.40;0.40;;;;;;;;;;5056427;28;20229;-89
2022/09/07 11:32:55;;;;;;;0.32;0.32;;;;;;;;;;5060007;28;20221;-90
2022/09/07 11:35:29;;;;;;;0.20;0.20;;;;;;;;;;5041123;28;20234;-90
2022/09/07 11:38:02;;;;;;;0.10;0.10;;;;;;;;;;5034069;28;20230;-90
2022/09/07 11:40:31;;;;;;;0.28;0.28;;;;;;;;;;5047963;28;20665;-90
2022/09/07 11:43:00;;;;;;;0.20;0.20;;;;;;;;;;5054354;28;20221;-89
2022/09/07 11:45:31;;;;;;;0.30;0.30;;;;;;;;;;5059249;28;20238;-91
2022/09/07 11:48:01;;;;;;;0.30;0.30;;;;;;;;;;5059093;28;20225;-90
2022/09/07 11:50:30;;;;;;;0.10;0.10;;;;;;;;;;5060912;28;20230;-90
2022/09/07 11:52:59;;;;;;;0.20;0.20;;;;;;;;;;5054582;28;20217;-90
2022/09/07 11:55:29;;;;;;;0.30;0.30;;;;;;;;;;5040225;28;20245;-90
2022/09/07 11:58:18;;;;;;;0.20;0.20;;;;;;;;;;5036679;28;20226;-89
2022/09/07 12:00:49;;;;;;;0.30;0.30;;;;;;;;;;5038055;28;20230;-89
2022/09/07 12:03:25;;;;;;;0.22;0.22;;;;;;;;;;5049977;28;20179;-90
2022/09/07 12:06:02;;;;;;;0.20;0.20;;;;;;;;;;5054539;28;20222;-89
2022/09/07 12:08:37;;;;;;;0.20;0.20;;;;;;;;;;5047175;28;20217;-89
2022/09/07 12:11:11;;;;;;;0.47;0.47;;;;;;;;;;5052151;28;20222;-90
2022/09/07 12:13:53;;;;;;;0.30;0.30;;;;;;;;;;5042490;28;20220;-90
2022/09/07 12:16:22;;;;;;;0.28;0.28;;;;;;;;;;5022894;28;20312;-89
2022/09/07 12:19:05;;;;;;;0.20;0.20;;;;;;;;;;5066543;28;20236;-89
2022/09/07 12:21:38;;;;;;;0.22;0.22;;;;;;;;;;5064068;28;20704;-90
2022/09/07 12:24:05;;;;;;;0.17;0.17;;;;;;;;;;5073382;28;20230;-88
2022/09/07 12:26:50;;;;;;;0.30;0.30;;;;;;;;;;5040134;28;20288;-89
2022/09/07 12:29:22;;;;;;;0.20;0.20;;;;;;;;;;5019538;28;20238;-89
2022/09/07 12:31:50;;;;;;;0.30;0.30;;;;;;;;;;5050193;28;20213;-89
2022/09/07 12:34:36;;;;;;;0.10;0.10;;;;;;;;;;5053170;28;20233;-87
2022/09/07 12:37:25;;;;;;;0.90;0.90;;;;;;;;;;5056116;28;20233;-88
2022/09/07 12:40:12;;;;;;;0.30;0.30;;;;;;;;;;5054374;28;20233;-89
2022/09/07 12:42:39;;;;;;;0.17;0.17;;;;;;;;;;5053279;28;20303;-89
2022/09/07 12:45:24;;;;;;;0.22;0.22;;;;;;;;;;5052800;28;20745;-89
2022/09/07 12:47:56;;;;;;;0.10;0.10;;;;;;;;;;5043256;28;20726;-89
2022/09/07 12:50:27;;;;;;;0.15;0.15;;;;;;;;;;5036365;28;20234;-89
2022/09/07 12:53:16;;;;;;;0.17;0.17;;;;;;;;;;5038704;28;20222;-89
2022/09/07 12:56:01;;;;;;;0.30;0.30;;;;;;;;;;5049346;28;20273;-88
2022/09/07 12:58:35;;;;;;;0.43;0.43;;;;;;;;;;5038924;28;20297;-87
2022/09/07 13:01:16;;;;;;;0.20;0.20;;;;;;;;;;5058193;28;20233;-88
2022/09/07 13:04:14;;;;;;;0.20;0.20;;;;;;;;;;5060881;28;20285;-87
2022/09/07 13:06:59;;;;;;;0.30;0.30;;;;;;;;;;4938991;29;20641;-87
2022/09/07 13:09:31;;;;;;;0.20;0.20;;;;;;;;;;5029250;28;20254;-87
2022/09/07 13:11:59;;;;;;;0.10;0.10;;;;;;;;;;5040465;28;20212;-87
2022/09/07 13:14:26;;;;;;;1.35;0.38;;;;;;;;;;5030868;28;20695;-88
2022/09/07 13:17:10;;;;;;;0.38;0.38;;;;;;;;;;5028059;28;20210;-87
2022/09/07 13:19:55;;;;;;;0.30;0.30;;;;;;;;;;5037719;28;20264;-87
2022/09/07 13:22:41;;;;;;;0.20;0.20;;;;;;;;;;5053714;28;20207;-88
2022/09/07 13:28:12;;;;;;;0.10;0.10;;;;;;;;;;5125870;27;20562;-88
2022/09/07 13:30:46;;;;;;;0.25;0.25;;;;;;;;;;5071330;28;20233;-89
2022/09/07 13:33:31;;;;;;;0.20;0.20;;;;;;;;;;5059817;28;20674;-88
2022/09/07 13:36:00;;;;;;;0.28;0.28;;;;;;;;;;5077185;28;20229;-89
2022/09/07 13:38:27;;;;;;;0.10;0.10;;;;;;;;;;5077471;28;20221;-86
2022/09/07 13:41:04;;;;;;;0.00;0.00;;;;;;;;;;5064675;28;20223;-86
2022/09/07 13:43:54;;;;;;;0.10;0.10;;;;;;;;;;5068352;28;20253;-88
2022/09/07 13:46:35;;;;;;;0.10;0.10;;;;;;;;;;5069116;28;20241;-87
2022/09/07 13:49:09;;;;;;;0.40;0.40;;;;;;;;;;5054784;28;20765;-90
2022/09/07 13:51:40;;;;;;;0.20;0.20;;;;;;;;;;5073827;28;20745;-88
2022/09/07 13:54:11;;;;;;;0.25;0.25;;;;;;;;;;5079886;28;20229;-87
2022/09/07 13:56:41;;;;;;;0.13;0.13;;;;;;;;;;5080241;28;20640;-86
2022/09/07 13:59:19;;;;;;;0.10;0.10;;;;;;;;;;5079718;28;20240;-87
2022/09/07 14:01:47;;;;;;;0.08;0.08;;;;;;;;;;5067280;28;20191;-87
2022/09/07 14:04:20;;;;;;;0.20;0.20;;;;;;;;;;5053551;28;20248;-87
2022/09/07 14:06:47;;;;;;;0.10;0.10;;;;;;;;;;5061350;28;20226;-88
2022/09/07 14:09:16;;;;;;;0.17;0.17;;;;;;;;;;5055340;28;20230;-88
2022/09/07 14:11:45;;;;;;;0.20;0.15;;;;;;;;;;5052754;28;20198;-89
2022/09/07 14:14:15;;;;;;;0.00;0.00;;;;;;;;;;5054046;28;20709;-87
2022/09/07 14:16:44;;;;;;;0.10;0.10;;;;;;;;;;5051028;28;20199;-88
2022/09/07 14:19:12;;;;;;;0.30;0.30;;;;;;;;;;5049573;28;20230;-88
2022/09/07 14:21:40;;;;;;;0.10;0.10;;;;;;;;;;5051531;28;20220;-88
2022/09/07 14:24:18;;;;;;;0.10;0.10;;;;;;;;;;5054277;28;20241;-88
2022/09/07 14:26:46;;;;;;;0.13;0.13;;;;;;;;;;5062101;28;20230;-87
2022/09/07 14:29:22;;;;;;;0.20;0.10;;;;;;;;;;5056548;28;20234;-86
2022/09/07 14:31:50;;;;;;;0.00;0.00;;;;;;;;;;5057821;28;20292;-87
2022/09/07 14:34:18;;;;;;;0.00;0.00;;;;;;;;;;5056469;28;20341;-87
2022/09/07 14:36:47;;;;;;;0.00;0.00;;;;;;;;;;5057784;28;20527;-87
2022/09/07 14:39:20;;;;;;;0.10;0.10;;;;;;;;;;5043796;28;20242;-89
2022/09/07 14:41:59;;;;;;;0.30;0.30;;;;;;;;;;5051147;28;20207;-88
2022/09/07 14:44:44;;;;;;;0.10;0.10;;;;;;;;;;5058973;28;20434;-88
2022/09/07 14:47:22;;;;;;;0.10;0.10;;;;;;;;;;5051514;28;20554;-83
2022/09/07 14:49:51;;;;;;;0.10;0.10;;;;;;;;;;5049330;28;20238;-83
2022/09/07 14:52:20;;;;;;;0.10;0.10;;;;;;;;;;5043765;28;20211;-83
